sensor_id;sensor_type;location;lat;lon;timestamp;P1;durP1;ratioP1;P2;durP2;ratioP2
8371;SDS011;4223;48.724;8.982;2022-12-07T00:02:40;9.53;;;3.53;;
8371;SDS011;4223;48.724;8.982;2022-12-07T00:05:07;4.30;;;4.10;;
8371;SDS011;4223;48.724;8.982;2022-12-07T00:07:34;4.23;;;4.03;;
8371;SDS011;4223;48.724;8.982;2022-12-07T00:10:02;3.40;;;3.23;;
8371;SDS011;4223;48.724;8.982;2022-12-07T00:12:30;4.23;;;3.93;;
8371;SDS011;4223;48.724;8.982;2022-12-07T00:14:57;3.73;;;3.60;;
8371;SDS011;4223;48.724;8.982;2022-12-07T00:17:24;3.50;;;3.30;;
8371;SDS011;4223;48.724;8.982;2022-12-07T00:19:50;3.63;;;3.47;;
8371;SDS011;4223;48.724;8.982;2022-12-07T00:22:17;6.33;;;5.23;;
8371;SDS011;4223;48.724;8.982;2022-12-07T00:24:44;4.23;;;3.90;;
8371;SDS011;4223;48.724;8.982;2022-12-07T00:27:12;6.57;;;4.70;;
8371;SDS011;4223;48.724;8.982;2022-12-07T00:29:39;3.67;;;3.47;;
8371;SDS011;4223;48.724;8.982;2022-12-07T00:32:06;3.53;;;3.33;;
8371;SDS011;4223;48.724;8.982;2022-12-07T00:34:33;4.77;;;4.27;;
8371;SDS011;4223;48.724;8.982;2022-12-07T00:36:59;4.17;;;3.87;;
8371;SDS011;4223;48.724;8.982;2022-12-07T00:39:26;4.60;;;4.30;;
8371;SDS011;4223;48.724;8.982;2022-12-07T00:41:53;4.33;;;3.93;;
8371;SDS011;4223;48.724;8.982;2022-12-07T00:44:22;4.63;;;4.37;;
8371;SDS011;4223;48.724;8.982;2022-12-07T00:46:49;4.67;;;4.37;;
8371;SDS011;4223;48.724;8.982;2022-12-07T00:49:15;3.37;;;3.23;;
8371;SDS011;4223;48.724;8.982;2022-12-07T00:51:42;6.17;;;3.60;;
8371;SDS011;4223;48.724;8.982;2022-12-07T00:54:09;3.97;;;3.77;;
8371;SDS011;4223;48.724;8.982;2022-12-07T00:56:36;6.17;;;5.67;;
8371;SDS011;4223;48.724;8.982;2022-12-07T00:59:03;3.37;;;3.27;;
8371;SDS011;4223;48.724;8.982;2022-12-07T01:01:32;4.00;;;3.70;;
8371;SDS011;4223;48.724;8.982;2022-12-07T01:03:59;4.40;;;4.10;;
8371;SDS011;4223;48.724;8.982;2022-12-07T01:06:27;4.77;;;4.33;;
8371;SDS011;4223;48.724;8.982;2022-12-07T01:08:54;3.27;;;3.00;;
8371;SDS011;4223;48.724;8.982;2022-12-07T01:11:22;4.27;;;4.07;;
8371;SDS011;4223;48.724;8.982;2022-12-07T01:13:50;4.80;;;4.40;;
8371;SDS011;4223;48.724;8.982;2022-12-07T01:16:18;4.80;;;4.50;;
8371;SDS011;4223;48.724;8.982;2022-12-07T01:18:47;2.77;;;2.67;;
8371;SDS011;4223;48.724;8.982;2022-12-07T01:21:15;3.37;;;3.00;;
8371;SDS011;4223;48.724;8.982;2022-12-07T01:23:44;4.80;;;4.50;;
8371;SDS011;4223;48.724;8.982;2022-12-07T01:26:12;4.93;;;3.90;;
8371;SDS011;4223;48.724;8.982;2022-12-07T01:28:40;10.97;;;4.17;;
8371;SDS011;4223;48.724;8.982;2022-12-07T01:31:08;3.97;;;3.77;;
8371;SDS011;4223;48.724;8.982;2022-12-07T01:33:37;3.87;;;3.57;;
8371;SDS011;4223;48.724;8.982;2022-12-07T01:36:07;3.03;;;2.83;;
8371;SDS011;4223;48.724;8.982;2022-12-07T01:38:38;4.23;;;4.03;;
8371;SDS011;4223;48.724;8.982;2022-12-07T01:41:05;4.17;;;3.97;;
8371;SDS011;4223;48.724;8.982;2022-12-07T01:43:33;2.83;;;2.73;;
8371;SDS011;4223;48.724;8.982;2022-12-07T01:46:00;3.83;;;3.63;;
8371;SDS011;4223;48.724;8.982;2022-12-07T01:48:29;4.00;;;3.73;;
8371;SDS011;4223;48.724;8.982;2022-12-07T01:51:00;7.63;;;4.60;;
8371;SDS011;4223;48.724;8.982;2022-12-07T01:53:31;3.60;;;3.50;;
8371;SDS011;4223;48.724;8.982;2022-12-07T01:56:01;4.57;;;4.27;;
8371;SDS011;4223;48.724;8.982;2022-12-07T01:58:28;2.60;;;2.50;;
8371;SDS011;4223;48.724;8.982;2022-12-07T02:00:55;6.80;;;4.23;;
8371;SDS011;4223;48.724;8.982;2022-12-07T02:03:24;4.27;;;3.97;;
8371;SDS011;4223;48.724;8.982;2022-12-07T02:05:56;4.13;;;3.83;;
8371;SDS011;4223;48.724;8.982;2022-12-07T02:08:24;4.93;;;4.63;;
8371;SDS011;4223;48.724;8.982;2022-12-07T02:10:53;4.60;;;4.17;;
8371;SDS011;4223;48.724;8.982;2022-12-07T02:13:21;4.50;;;4.27;;
8371;SDS011;4223;48.724;8.982;2022-12-07T02:15:58;4.10;;;3.90;;
8371;SDS011;4223;48.724;8.982;2022-12-07T02:18:38;5.67;;;4.80;;
8371;SDS011;4223;48.724;8.982;2022-12-07T02:21:12;3.10;;;3.00;;
8371;SDS011;4223;48.724;8.982;2022-12-07T02:23:51;2.70;;;2.60;;
8371;SDS011;4223;48.724;8.982;2022-12-07T02:30:05;4.10;;;3.07;;
8371;SDS011;4223;48.724;8.982;2022-12-07T02:32:37;3.57;;;3.37;;
8371;SDS011;4223;48.724;8.982;2022-12-07T02:35:13;4.40;;;4.20;;
8371;SDS011;4223;48.724;8.982;2022-12-07T02:37:47;3.50;;;3.30;;
8371;SDS011;4223;48.724;8.982;2022-12-07T02:40:26;5.30;;;4.97;;
8371;SDS011;4223;48.724;8.982;2022-12-07T02:42:59;3.00;;;2.80;;
8371;SDS011;4223;48.724;8.982;2022-12-07T02:45:31;2.90;;;2.80;;
8371;SDS011;4223;48.724;8.982;2022-12-07T02:48:02;4.47;;;4.20;;
8371;SDS011;4223;48.724;8.982;2022-12-07T02:50:31;3.57;;;3.43;;
8371;SDS011;4223;48.724;8.982;2022-12-07T02:52:58;3.57;;;3.47;;
8371;SDS011;4223;48.724;8.982;2022-12-07T02:55:26;3.30;;;3.13;;
8371;SDS011;4223;48.724;8.982;2022-12-07T02:58:06;3.60;;;3.40;;
8371;SDS011;4223;48.724;8.982;2022-12-07T03:00:48;5.20;;;4.80;;
8371;SDS011;4223;48.724;8.982;2022-12-07T03:03:21;3.40;;;3.30;;
8371;SDS011;4223;48.724;8.982;2022-12-07T03:05:53;3.80;;;3.60;;
8371;SDS011;4223;48.724;8.982;2022-12-07T03:08:44;5.17;;;4.77;;
8371;SDS011;4223;48.724;8.982;2022-12-07T03:11:18;3.67;;;3.37;;
8371;SDS011;4223;48.724;8.982;2022-12-07T03:13:51;4.07;;;3.77;;
8371;SDS011;4223;48.724;8.982;2022-12-07T03:16:26;3.33;;;3.13;;
8371;SDS011;4223;48.724;8.982;2022-12-07T03:18:56;4.10;;;3.53;;
8371;SDS011;4223;48.724;8.982;2022-12-07T03:21:26;3.70;;;3.43;;
8371;SDS011;4223;48.724;8.982;2022-12-07T03:23:58;4.00;;;3.70;;
8371;SDS011;4223;48.724;8.982;2022-12-07T03:26:30;3.30;;;3.13;;
8371;SDS011;4223;48.724;8.982;2022-12-07T03:29:02;3.97;;;3.70;;
8371;SDS011;4223;48.724;8.982;2022-12-07T03:31:35;3.13;;;2.93;;
8371;SDS011;4223;48.724;8.982;2022-12-07T03:34:09;3.97;;;3.67;;
8371;SDS011;4223;48.724;8.982;2022-12-07T03:36:39;3.43;;;3.17;;
8371;SDS011;4223;48.724;8.982;2022-12-07T03:39:12;3.13;;;2.90;;
8371;SDS011;4223;48.724;8.982;2022-12-07T03:41:45;4.30;;;4.10;;
8371;SDS011;4223;48.724;8.982;2022-12-07T03:44:12;11.70;;;3.93;;
8371;SDS011;4223;48.724;8.982;2022-12-07T03:46:44;3.47;;;3.27;;
8371;SDS011;4223;48.724;8.982;2022-12-07T03:49:18;3.23;;;3.03;;
8371;SDS011;4223;48.724;8.982;2022-12-07T03:51:51;3.93;;;3.73;;
8371;SDS011;4223;48.724;8.982;2022-12-07T03:54:24;2.67;;;2.57;;
8371;SDS011;4223;48.724;8.982;2022-12-07T03:56:56;4.37;;;4.07;;
8371;SDS011;4223;48.724;8.982;2022-12-07T03:59:24;2.33;;;2.33;;
8371;SDS011;4223;48.724;8.982;2022-12-07T04:01:54;2.63;;;2.43;;
8371;SDS011;4223;48.724;8.982;2022-12-07T04:04:23;3.53;;;3.27;;
8371;SDS011;4223;48.724;8.982;2022-12-07T04:06:51;2.77;;;2.67;;
8371;SDS011;4223;48.724;8.982;2022-12-07T04:09:18;3.23;;;3.03;;
8371;SDS011;4223;48.724;8.982;2022-12-07T04:11:44;2.90;;;2.73;;
8371;SDS011;4223;48.724;8.982;2022-12-07T04:14:11;3.67;;;3.37;;
8371;SDS011;4223;48.724;8.982;2022-12-07T04:16:44;4.20;;;3.77;;
8371;SDS011;4223;48.724;8.982;2022-12-07T04:19:13;2.80;;;2.70;;
8371;SDS011;4223;48.724;8.982;2022-12-07T04:21:40;4.03;;;3.80;;
8371;SDS011;4223;48.724;8.982;2022-12-07T04:24:07;4.67;;;3.53;;
8371;SDS011;4223;48.724;8.982;2022-12-07T04:26:34;6.10;;;5.03;;
8371;SDS011;4223;48.724;8.982;2022-12-07T04:29:01;3.43;;;3.23;;
8371;SDS011;4223;48.724;8.982;2022-12-07T04:31:28;6.17;;;3.50;;
8371;SDS011;4223;48.724;8.982;2022-12-07T04:33:55;4.40;;;3.87;;
8371;SDS011;4223;48.724;8.982;2022-12-07T04:36:23;4.57;;;4.23;;
8371;SDS011;4223;48.724;8.982;2022-12-07T04:38:52;4.07;;;3.87;;
8371;SDS011;4223;48.724;8.982;2022-12-07T04:41:19;3.13;;;3.03;;
8371;SDS011;4223;48.724;8.982;2022-12-07T04:43:52;2.97;;;2.87;;
8371;SDS011;4223;48.724;8.982;2022-12-07T04:46:19;4.30;;;4.00;;
8371;SDS011;4223;48.724;8.982;2022-12-07T04:48:46;2.73;;;2.63;;
8371;SDS011;4223;48.724;8.982;2022-12-07T04:51:13;3.20;;;2.97;;
8371;SDS011;4223;48.724;8.982;2022-12-07T04:53:41;5.17;;;4.50;;
8371;SDS011;4223;48.724;8.982;2022-12-07T04:56:08;5.67;;;3.80;;
8371;SDS011;4223;48.724;8.982;2022-12-07T04:58:35;3.27;;;3.07;;
8371;SDS011;4223;48.724;8.982;2022-12-07T05:01:02;5.60;;;5.10;;
8371;SDS011;4223;48.724;8.982;2022-12-07T05:03:29;3.07;;;2.87;;
8371;SDS011;4223;48.724;8.982;2022-12-07T05:05:56;15.87;;;4.37;;
8371;SDS011;4223;48.724;8.982;2022-12-07T05:08:22;4.00;;;3.80;;
8371;SDS011;4223;48.724;8.982;2022-12-07T05:10:50;3.93;;;3.73;;
8371;SDS011;4223;48.724;8.982;2022-12-07T05:13:17;3.60;;;3.40;;
8371;SDS011;4223;48.724;8.982;2022-12-07T05:15:44;3.10;;;2.87;;
8371;SDS011;4223;48.724;8.982;2022-12-07T05:18:12;3.90;;;3.70;;
8371;SDS011;4223;48.724;8.982;2022-12-07T05:20:39;3.30;;;3.20;;
8371;SDS011;4223;48.724;8.982;2022-12-07T05:23:07;3.27;;;3.17;;
8371;SDS011;4223;48.724;8.982;2022-12-07T05:25:34;2.73;;;2.63;;
8371;SDS011;4223;48.724;8.982;2022-12-07T05:28:02;4.37;;;3.20;;
8371;SDS011;4223;48.724;8.982;2022-12-07T05:30:30;5.47;;;4.53;;
8371;SDS011;4223;48.724;8.982;2022-12-07T05:32:57;4.20;;;3.90;;
8371;SDS011;4223;48.724;8.982;2022-12-07T05:35:24;4.07;;;3.80;;
8371;SDS011;4223;48.724;8.982;2022-12-07T05:37:51;2.73;;;2.63;;
8371;SDS011;4223;48.724;8.982;2022-12-07T05:40:18;3.07;;;2.87;;
8371;SDS011;4223;48.724;8.982;2022-12-07T05:42:45;2.83;;;2.73;;
8371;SDS011;4223;48.724;8.982;2022-12-07T05:45:13;3.40;;;3.30;;
8371;SDS011;4223;48.724;8.982;2022-12-07T05:47:40;7.07;;;3.43;;
8371;SDS011;4223;48.724;8.982;2022-12-07T05:50:07;3.60;;;3.40;;
8371;SDS011;4223;48.724;8.982;2022-12-07T05:52:34;14.13;;;2.83;;
8371;SDS011;4223;48.724;8.982;2022-12-07T05:55:00;4.80;;;4.00;;
8371;SDS011;4223;48.724;8.982;2022-12-07T05:57:27;3.17;;;3.07;;
8371;SDS011;4223;48.724;8.982;2022-12-07T05:59:54;4.00;;;3.70;;
8371;SDS011;4223;48.724;8.982;2022-12-07T06:02:24;4.37;;;4.17;;
8371;SDS011;4223;48.724;8.982;2022-12-07T06:04:51;3.43;;;3.27;;
8371;SDS011;4223;48.724;8.982;2022-12-07T06:07:18;4.37;;;3.97;;
8371;SDS011;4223;48.724;8.982;2022-12-07T06:09:45;2.33;;;2.27;;
8371;SDS011;4223;48.724;8.982;2022-12-07T06:12:12;3.53;;;3.33;;
8371;SDS011;4223;48.724;8.982;2022-12-07T06:14:56;4.07;;;3.77;;
8371;SDS011;4223;48.724;8.982;2022-12-07T06:17:25;3.10;;;2.90;;
8371;SDS011;4223;48.724;8.982;2022-12-07T06:19:51;2.47;;;2.37;;
8371;SDS011;4223;48.724;8.982;2022-12-07T06:22:18;2.97;;;2.87;;
8371;SDS011;4223;48.724;8.982;2022-12-07T06:24:45;3.47;;;3.27;;
8371;SDS011;4223;48.724;8.982;2022-12-07T06:27:12;4.00;;;3.83;;
8371;SDS011;4223;48.724;8.982;2022-12-07T06:29:39;3.17;;;3.07;;
8371;SDS011;4223;48.724;8.982;2022-12-07T06:32:06;3.40;;;3.20;;
8371;SDS011;4223;48.724;8.982;2022-12-07T06:34:34;4.43;;;4.17;;
8371;SDS011;4223;48.724;8.982;2022-12-07T06:37:01;4.07;;;3.87;;
8371;SDS011;4223;48.724;8.982;2022-12-07T06:39:28;4.57;;;4.17;;
8371;SDS011;4223;48.724;8.982;2022-12-07T06:41:55;3.67;;;3.37;;
8371;SDS011;4223;48.724;8.982;2022-12-07T06:44:23;4.17;;;3.90;;
8371;SDS011;4223;48.724;8.982;2022-12-07T06:46:50;3.67;;;3.40;;
8371;SDS011;4223;48.724;8.982;2022-12-07T06:49:17;3.97;;;3.70;;
8371;SDS011;4223;48.724;8.982;2022-12-07T06:51:45;2.27;;;2.27;;
8371;SDS011;4223;48.724;8.982;2022-12-07T06:54:13;2.63;;;2.53;;
8371;SDS011;4223;48.724;8.982;2022-12-07T06:56:41;3.77;;;3.57;;
8371;SDS011;4223;48.724;8.982;2022-12-07T06:59:08;2.20;;;2.20;;
8371;SDS011;4223;48.724;8.982;2022-12-07T07:01:35;2.93;;;2.83;;
8371;SDS011;4223;48.724;8.982;2022-12-07T07:04:02;3.20;;;2.90;;
8371;SDS011;4223;48.724;8.982;2022-12-07T07:06:30;2.90;;;2.80;;
8371;SDS011;4223;48.724;8.982;2022-12-07T07:08:58;3.77;;;3.57;;
8371;SDS011;4223;48.724;8.982;2022-12-07T07:11:25;2.87;;;2.77;;
8371;SDS011;4223;48.724;8.982;2022-12-07T07:16:35;3.93;;;3.63;;
8371;SDS011;4223;48.724;8.982;2022-12-07T07:19:02;4.03;;;3.83;;
8371;SDS011;4223;48.724;8.982;2022-12-07T07:21:29;3.80;;;3.60;;
8371;SDS011;4223;48.724;8.982;2022-12-07T07:23:55;4.10;;;3.90;;
8371;SDS011;4223;48.724;8.982;2022-12-07T07:26:24;5.97;;;3.93;;
8371;SDS011;4223;48.724;8.982;2022-12-07T07:28:50;4.57;;;4.37;;
8371;SDS011;4223;48.724;8.982;2022-12-07T07:31:17;4.20;;;4.00;;
8371;SDS011;4223;48.724;8.982;2022-12-07T07:33:44;5.30;;;4.80;;
8371;SDS011;4223;48.724;8.982;2022-12-07T07:36:11;6.27;;;5.77;;
8371;SDS011;4223;48.724;8.982;2022-12-07T07:38:38;5.57;;;5.17;;
8371;SDS011;4223;48.724;8.982;2022-12-07T07:41:06;4.40;;;4.20;;
8371;SDS011;4223;48.724;8.982;2022-12-07T07:43:33;4.67;;;4.43;;
8371;SDS011;4223;48.724;8.982;2022-12-07T07:46:00;6.13;;;5.73;;
8371;SDS011;4223;48.724;8.982;2022-12-07T07:48:27;4.03;;;3.80;;
8371;SDS011;4223;48.724;8.982;2022-12-07T07:50:54;4.80;;;4.43;;
8371;SDS011;4223;48.724;8.982;2022-12-07T07:53:21;5.97;;;5.47;;
8371;SDS011;4223;48.724;8.982;2022-12-07T07:55:51;4.30;;;3.90;;
8371;SDS011;4223;48.724;8.982;2022-12-07T07:58:20;4.63;;;4.33;;
8371;SDS011;4223;48.724;8.982;2022-12-07T08:00:47;4.93;;;4.53;;
8371;SDS011;4223;48.724;8.982;2022-12-07T08:03:14;4.60;;;4.20;;
8371;SDS011;4223;48.724;8.982;2022-12-07T08:05:41;4.67;;;4.33;;
8371;SDS011;4223;48.724;8.982;2022-12-07T08:08:07;4.47;;;4.17;;
8371;SDS011;4223;48.724;8.982;2022-12-07T08:10:34;7.97;;;5.40;;
8371;SDS011;4223;48.724;8.982;2022-12-07T08:13:02;4.27;;;4.03;;
8371;SDS011;4223;48.724;8.982;2022-12-07T08:15:40;5.53;;;5.13;;
8371;SDS011;4223;48.724;8.982;2022-12-07T08:18:08;2.97;;;2.77;;
8371;SDS011;4223;48.724;8.982;2022-12-07T08:20:36;3.57;;;3.37;;
8371;SDS011;4223;48.724;8.982;2022-12-07T08:23:04;3.27;;;3.07;;
8371;SDS011;4223;48.724;8.982;2022-12-07T08:25:31;4.10;;;3.67;;
8371;SDS011;4223;48.724;8.982;2022-12-07T08:27:59;4.93;;;4.63;;
8371;SDS011;4223;48.724;8.982;2022-12-07T08:30:26;4.10;;;3.90;;
8371;SDS011;4223;48.724;8.982;2022-12-07T08:32:56;6.13;;;4.27;;
8371;SDS011;4223;48.724;8.982;2022-12-07T08:35:23;3.43;;;3.23;;
8371;SDS011;4223;48.724;8.982;2022-12-07T08:37:51;3.50;;;3.30;;
8371;SDS011;4223;48.724;8.982;2022-12-07T08:40:18;3.57;;;3.30;;
8371;SDS011;4223;48.724;8.982;2022-12-07T08:42:48;3.47;;;3.30;;
8371;SDS011;4223;48.724;8.982;2022-12-07T08:45:15;3.23;;;2.93;;
8371;SDS011;4223;48.724;8.982;2022-12-07T08:47:44;4.93;;;4.60;;
8371;SDS011;4223;48.724;8.982;2022-12-07T08:50:16;3.60;;;3.37;;
8371;SDS011;4223;48.724;8.982;2022-12-07T08:52:43;3.47;;;3.27;;
8371;SDS011;4223;48.724;8.982;2022-12-07T08:55:14;3.63;;;3.07;;
8371;SDS011;4223;48.724;8.982;2022-12-07T08:57:40;2.93;;;2.83;;
8371;SDS011;4223;48.724;8.982;2022-12-07T09:00:08;3.97;;;2.70;;
8371;SDS011;4223;48.724;8.982;2022-12-07T09:02:35;2.87;;;2.77;;
8371;SDS011;4223;48.724;8.982;2022-12-07T09:05:03;3.17;;;2.97;;
8371;SDS011;4223;48.724;8.982;2022-12-07T09:07:31;2.70;;;2.50;;
8371;SDS011;4223;48.724;8.982;2022-12-07T09:09:59;3.17;;;3.07;;
8371;SDS011;4223;48.724;8.982;2022-12-07T09:12:26;2.87;;;2.77;;
8371;SDS011;4223;48.724;8.982;2022-12-07T09:14:52;4.70;;;2.90;;
8371;SDS011;4223;48.724;8.982;2022-12-07T09:17:19;2.90;;;2.80;;
8371;SDS011;4223;48.724;8.982;2022-12-07T09:19:46;3.17;;;2.83;;
8371;SDS011;4223;48.724;8.982;2022-12-07T09:22:13;2.73;;;2.63;;
8371;SDS011;4223;48.724;8.982;2022-12-07T09:24:41;2.13;;;2.03;;
8371;SDS011;4223;48.724;8.982;2022-12-07T09:27:08;3.30;;;2.70;;
8371;SDS011;4223;48.724;8.982;2022-12-07T09:29:35;2.63;;;2.53;;
8371;SDS011;4223;48.724;8.982;2022-12-07T09:32:02;2.60;;;2.50;;
8371;SDS011;4223;48.724;8.982;2022-12-07T09:34:30;2.30;;;2.03;;
8371;SDS011;4223;48.724;8.982;2022-12-07T09:36:57;3.17;;;2.97;;
8371;SDS011;4223;48.724;8.982;2022-12-07T09:39:24;3.47;;;3.17;;
8371;SDS011;4223;48.724;8.982;2022-12-07T09:41:56;2.70;;;2.60;;
8371;SDS011;4223;48.724;8.982;2022-12-07T09:44:24;1.67;;;1.67;;
8371;SDS011;4223;48.724;8.982;2022-12-07T09:46:54;1.87;;;1.87;;
8371;SDS011;4223;48.724;8.982;2022-12-07T09:49:25;2.60;;;2.50;;
8371;SDS011;4223;48.724;8.982;2022-12-07T09:52:16;2.97;;;2.77;;
8371;SDS011;4223;48.724;8.982;2022-12-07T09:54:45;2.43;;;2.23;;
8371;SDS011;4223;48.724;8.982;2022-12-07T09:57:15;2.50;;;2.40;;
8371;SDS011;4223;48.724;8.982;2022-12-07T09:59:43;5.53;;;2.33;;
8371;SDS011;4223;48.724;8.982;2022-12-07T10:02:23;2.60;;;2.50;;
8371;SDS011;4223;48.724;8.982;2022-12-07T10:04:51;2.10;;;2.00;;
8371;SDS011;4223;48.724;8.982;2022-12-07T10:07:18;1.60;;;1.60;;
8371;SDS011;4223;48.724;8.982;2022-12-07T10:09:45;3.20;;;3.00;;
8371;SDS011;4223;48.724;8.982;2022-12-07T10:12:12;2.20;;;2.17;;
8371;SDS011;4223;48.724;8.982;2022-12-07T10:14:54;1.97;;;1.87;;
8371;SDS011;4223;48.724;8.982;2022-12-07T10:17:26;3.40;;;3.10;;
8371;SDS011;4223;48.724;8.982;2022-12-07T10:20:08;2.73;;;2.53;;
8371;SDS011;4223;48.724;8.982;2022-12-07T10:22:56;2.77;;;2.67;;
8371;SDS011;4223;48.724;8.982;2022-12-07T10:25:29;2.50;;;2.40;;
8371;SDS011;4223;48.724;8.982;2022-12-07T10:28:00;2.30;;;2.20;;
8371;SDS011;4223;48.724;8.982;2022-12-07T10:30:30;2.47;;;2.37;;
8371;SDS011;4223;48.724;8.982;2022-12-07T10:32:58;2.67;;;2.57;;
8371;SDS011;4223;48.724;8.982;2022-12-07T10:35:26;2.40;;;2.30;;
8371;SDS011;4223;48.724;8.982;2022-12-07T10:37:55;2.27;;;2.07;;
8371;SDS011;4223;48.724;8.982;2022-12-07T10:40:28;1.97;;;1.47;;
8371;SDS011;4223;48.724;8.982;2022-12-07T10:43:05;1.40;;;1.40;;
8371;SDS011;4223;48.724;8.982;2022-12-07T10:45:45;2.03;;;1.70;;
8371;SDS011;4223;48.724;8.982;2022-12-07T10:48:43;2.10;;;2.00;;
8371;SDS011;4223;48.724;8.982;2022-12-07T10:51:19;1.87;;;1.87;;
8371;SDS011;4223;48.724;8.982;2022-12-07T10:53:57;1.93;;;1.83;;
8371;SDS011;4223;48.724;8.982;2022-12-07T10:56:38;2.27;;;2.17;;
8371;SDS011;4223;48.724;8.982;2022-12-07T10:59:19;1.57;;;1.57;;
8371;SDS011;4223;48.724;8.982;2022-12-07T11:02:02;1.23;;;1.23;;
8371;SDS011;4223;48.724;8.982;2022-12-07T11:04:53;1.37;;;1.37;;
8371;SDS011;4223;48.724;8.982;2022-12-07T11:07:28;1.70;;;1.70;;
8371;SDS011;4223;48.724;8.982;2022-12-07T11:10:05;2.30;;;2.10;;
8371;SDS011;4223;48.724;8.982;2022-12-07T11:12:57;1.73;;;1.73;;
8371;SDS011;4223;48.724;8.982;2022-12-07T11:15:40;1.53;;;1.53;;
8371;SDS011;4223;48.724;8.982;2022-12-07T11:18:20;1.20;;;1.20;;
8371;SDS011;4223;48.724;8.982;2022-12-07T11:20:52;2.33;;;2.23;;
8371;SDS011;4223;48.724;8.982;2022-12-07T11:23:28;1.53;;;1.53;;
8371;SDS011;4223;48.724;8.982;2022-12-07T11:26:14;1.03;;;1.03;;
8371;SDS011;4223;48.724;8.982;2022-12-07T11:28:59;1.37;;;1.27;;
8371;SDS011;4223;48.724;8.982;2022-12-07T11:31:36;1.50;;;1.50;;
8371;SDS011;4223;48.724;8.982;2022-12-07T11:34:18;1.10;;;1.10;;
8371;SDS011;4223;48.724;8.982;2022-12-07T11:36:54;1.43;;;1.43;;
8371;SDS011;4223;48.724;8.982;2022-12-07T11:39:24;1.97;;;1.80;;
8371;SDS011;4223;48.724;8.982;2022-12-07T11:41:56;1.50;;;1.50;;
8371;SDS011;4223;48.724;8.982;2022-12-07T11:44:31;0.87;;;0.87;;
8371;SDS011;4223;48.724;8.982;2022-12-07T11:47:05;1.33;;;1.33;;
8371;SDS011;4223;48.724;8.982;2022-12-07T11:49:40;1.40;;;1.40;;
8371;SDS011;4223;48.724;8.982;2022-12-07T11:52:14;1.93;;;1.83;;
8371;SDS011;4223;48.724;8.982;2022-12-07T11:54:46;0.87;;;0.87;;
8371;SDS011;4223;48.724;8.982;2022-12-07T11:57:17;1.43;;;1.33;;
8371;SDS011;4223;48.724;8.982;2022-12-07T11:59:51;1.83;;;1.73;;
8371;SDS011;4223;48.724;8.982;2022-12-07T12:02:23;1.23;;;1.23;;
8371;SDS011;4223;48.724;8.982;2022-12-07T12:04:58;1.10;;;1.10;;
8371;SDS011;4223;48.724;8.982;2022-12-07T12:07:32;1.60;;;1.60;;
8371;SDS011;4223;48.724;8.982;2022-12-07T12:10:02;0.90;;;0.90;;
8371;SDS011;4223;48.724;8.982;2022-12-07T12:12:42;1.47;;;1.43;;
8371;SDS011;4223;48.724;8.982;2022-12-07T12:15:26;1.87;;;1.60;;
8371;SDS011;4223;48.724;8.982;2022-12-07T12:18:07;1.23;;;1.23;;
8371;SDS011;4223;48.724;8.982;2022-12-07T12:20:52;1.17;;;1.17;;
8371;SDS011;4223;48.724;8.982;2022-12-07T12:23:22;2.50;;;1.73;;
8371;SDS011;4223;48.724;8.982;2022-12-07T12:25:54;1.13;;;1.13;;
8371;SDS011;4223;48.724;8.982;2022-12-07T12:28:24;1.00;;;1.00;;
8371;SDS011;4223;48.724;8.982;2022-12-07T12:31:05;1.13;;;1.13;;
8371;SDS011;4223;48.724;8.982;2022-12-07T12:33:35;0.97;;;0.97;;
8371;SDS011;4223;48.724;8.982;2022-12-07T12:36:19;1.20;;;1.20;;
8371;SDS011;4223;48.724;8.982;2022-12-07T12:38:49;0.63;;;0.63;;
8371;SDS011;4223;48.724;8.982;2022-12-07T12:47:41;1.07;;;1.03;;
8371;SDS011;4223;48.724;8.982;2022-12-07T12:50:21;1.80;;;1.70;;
8371;SDS011;4223;48.724;8.982;2022-12-07T12:52:53;1.47;;;1.47;;
8371;SDS011;4223;48.724;8.982;2022-12-07T12:58:36;1.20;;;1.20;;
8371;SDS011;4223;48.724;8.982;2022-12-07T13:04:14;1.70;;;1.70;;
8371;SDS011;4223;48.724;8.982;2022-12-07T13:06:58;2.37;;;2.20;;
8371;SDS011;4223;48.724;8.982;2022-12-07T13:09:27;1.97;;;1.87;;
8371;SDS011;4223;48.724;8.982;2022-12-07T13:11:58;1.90;;;1.90;;
8371;SDS011;4223;48.724;8.982;2022-12-07T13:14:41;1.37;;;1.37;;
8371;SDS011;4223;48.724;8.982;2022-12-07T13:23:19;5.17;;;2.07;;
8371;SDS011;4223;48.724;8.982;2022-12-07T13:25:58;3.40;;;2.17;;
8371;SDS011;4223;48.724;8.982;2022-12-07T13:28:32;1.70;;;1.70;;
8371;SDS011;4223;48.724;8.982;2022-12-07T13:31:08;1.93;;;1.83;;
8371;SDS011;4223;48.724;8.982;2022-12-07T13:33:39;1.33;;;1.33;;
8371;SDS011;4223;48.724;8.982;2022-12-07T13:36:10;2.03;;;1.93;;
8371;SDS011;4223;48.724;8.982;2022-12-07T13:38:47;1.43;;;1.33;;
8371;SDS011;4223;48.724;8.982;2022-12-07T13:41:18;1.20;;;1.20;;
8371;SDS011;4223;48.724;8.982;2022-12-07T13:43:48;7.33;;;1.90;;
8371;SDS011;4223;48.724;8.982;2022-12-07T13:46:17;1.80;;;1.70;;
8371;SDS011;4223;48.724;8.982;2022-12-07T13:48:50;1.67;;;1.67;;
8371;SDS011;4223;48.724;8.982;2022-12-07T13:51:18;2.93;;;2.30;;
8371;SDS011;4223;48.724;8.982;2022-12-07T13:53:47;2.60;;;2.40;;
8371;SDS011;4223;48.724;8.982;2022-12-07T13:56:15;2.20;;;1.43;;
8371;SDS011;4223;48.724;8.982;2022-12-07T13:58:43;1.63;;;1.13;;
8371;SDS011;4223;48.724;8.982;2022-12-07T14:01:10;1.43;;;1.43;;
8371;SDS011;4223;48.724;8.982;2022-12-07T14:03:38;1.63;;;1.63;;
8371;SDS011;4223;48.724;8.982;2022-12-07T14:06:07;1.30;;;1.30;;
8371;SDS011;4223;48.724;8.982;2022-12-07T14:08:45;1.20;;;1.20;;
8371;SDS011;4223;48.724;8.982;2022-12-07T14:11:13;2.17;;;2.03;;
8371;SDS011;4223;48.724;8.982;2022-12-07T14:16:30;6.87;;;1.77;;
8371;SDS011;4223;48.724;8.982;2022-12-07T14:19:00;1.50;;;1.50;;
8371;SDS011;4223;48.724;8.982;2022-12-07T14:21:28;2.13;;;2.03;;
8371;SDS011;4223;48.724;8.982;2022-12-07T14:24:08;1.57;;;1.47;;
8371;SDS011;4223;48.724;8.982;2022-12-07T14:26:37;1.47;;;1.37;;
8371;SDS011;4223;48.724;8.982;2022-12-07T14:34:57;1.43;;;1.43;;
8371;SDS011;4223;48.724;8.982;2022-12-07T14:37:26;1.73;;;1.73;;
8371;SDS011;4223;48.724;8.982;2022-12-07T14:39:53;1.17;;;1.17;;
8371;SDS011;4223;48.724;8.982;2022-12-07T14:42:20;1.40;;;1.40;;
8371;SDS011;4223;48.724;8.982;2022-12-07T14:44:52;1.97;;;1.87;;
8371;SDS011;4223;48.724;8.982;2022-12-07T14:47:18;1.97;;;1.87;;
8371;SDS011;4223;48.724;8.982;2022-12-07T14:49:45;1.93;;;1.93;;
8371;SDS011;4223;48.724;8.982;2022-12-07T14:52:13;3.17;;;2.47;;
8371;SDS011;4223;48.724;8.982;2022-12-07T14:54:42;4.00;;;1.90;;
8371;SDS011;4223;48.724;8.982;2022-12-07T14:57:09;2.07;;;1.97;;
8371;SDS011;4223;48.724;8.982;2022-12-07T14:59:37;1.70;;;1.70;;
8371;SDS011;4223;48.724;8.982;2022-12-07T15:02:05;1.87;;;1.87;;
8371;SDS011;4223;48.724;8.982;2022-12-07T15:04:35;3.27;;;3.07;;
8371;SDS011;4223;48.724;8.982;2022-12-07T15:07:02;3.43;;;3.17;;
8371;SDS011;4223;48.724;8.982;2022-12-07T15:09:31;2.53;;;2.43;;
8371;SDS011;4223;48.724;8.982;2022-12-07T15:11:58;2.63;;;2.53;;
8371;SDS011;4223;48.724;8.982;2022-12-07T15:14:25;3.13;;;2.93;;
8371;SDS011;4223;48.724;8.982;2022-12-07T15:16:52;3.23;;;3.03;;
8371;SDS011;4223;48.724;8.982;2022-12-07T15:19:21;3.77;;;3.57;;
8371;SDS011;4223;48.724;8.982;2022-12-07T15:21:51;3.03;;;2.90;;
8371;SDS011;4223;48.724;8.982;2022-12-07T15:24:19;2.57;;;2.47;;
8371;SDS011;4223;48.724;8.982;2022-12-07T15:26:46;2.93;;;2.83;;
8371;SDS011;4223;48.724;8.982;2022-12-07T15:29:13;4.23;;;3.93;;
8371;SDS011;4223;48.724;8.982;2022-12-07T15:31:42;3.30;;;3.00;;
8371;SDS011;4223;48.724;8.982;2022-12-07T15:34:10;2.83;;;2.73;;
8371;SDS011;4223;48.724;8.982;2022-12-07T15:36:38;2.37;;;2.30;;
8371;SDS011;4223;48.724;8.982;2022-12-07T15:39:05;2.60;;;2.50;;
8371;SDS011;4223;48.724;8.982;2022-12-07T15:41:32;2.40;;;2.30;;
8371;SDS011;4223;48.724;8.982;2022-12-07T15:43:59;8.63;;;3.47;;
8371;SDS011;4223;48.724;8.982;2022-12-07T15:46:43;4.13;;;3.83;;
8371;SDS011;4223;48.724;8.982;2022-12-07T15:49:11;4.40;;;4.07;;
8371;SDS011;4223;48.724;8.982;2022-12-07T15:51:41;3.80;;;3.60;;
8371;SDS011;4223;48.724;8.982;2022-12-07T15:54:11;8.37;;;7.67;;
8371;SDS011;4223;48.724;8.982;2022-12-07T15:56:39;5.27;;;4.93;;
8371;SDS011;4223;48.724;8.982;2022-12-07T15:59:06;3.87;;;3.67;;
8371;SDS011;4223;48.724;8.982;2022-12-07T16:01:33;10.73;;;3.90;;
8371;SDS011;4223;48.724;8.982;2022-12-07T16:04:00;5.30;;;4.97;;
8371;SDS011;4223;48.724;8.982;2022-12-07T16:06:27;8.50;;;6.00;;
8371;SDS011;4223;48.724;8.982;2022-12-07T16:08:55;4.77;;;4.50;;